Burlingame, CA (94010)

12:06 AM PST on December 08, 2016 (GMT -0800)
Burlingame Park | | Change Station

Elev 33 ft 37.58 °N, 122.35 °W | Updated 14 seconds ago

Rain
Rain
47.8 °F
Feels Like 48 °F
N
1.3
Wind Variable Wind from North
Gusts 2.5 mph

Today
High -- | Low -- °F
--% Chance of Precip.
Yesterday
High -- | Low -- °F
Precip. -- in
Pressure 30.06 in
Visibility 3.0 miles
Clouds Scattered Clouds 500 ft
Mostly Cloudy 900 ft
Overcast 1100 ft
Windchill 48 °F
Dew Point 47 °F
Humidity 96%
Rainfall 0.00 in
Snow Depth Not available.
7:12 AM 4:50 PM
First Quarter, 61% visible
METAR KSFO 080756Z 10011KT 3SM RA BR SCT005 BKN009 OVC011 09/08 A3006 RMK AO2 SLP180 P0012 T00940078 401060056 $
Pressure 30.06 in
Visibility 3.0 miles
Clouds Scattered Clouds 500 ft
Mostly Cloudy 900 ft
Overcast 1100 ft
Windchill 48 °F
Dew Point 47 °F
Humidity 96%
Rainfall 0.00 in
Snow Depth Not available.
7:12 AM 4:50 PM
First Quarter, 61% visible
METAR KSFO 080756Z 10011KT 3SM RA BR SCT005 BKN009 OVC011 09/08 A3006 RMK AO2 SLP180 P0012 T00940078 401060056 $

10-Day Weather Forecast

Almanac

Astronomy

Dec. 08, 2016 Rise Set
Actual Time
Civil Twilight
Nautical Twilight
Astronomical Twilight
Moon
Length of Visible Light
Length of Day
Tomorrow will be .
, % of the Moon is Illuminated

Today's Extremes

State Highs State Lows

Community

WunderPhotos

Upload Photos

1,956,259 photos uploaded!

WunderBlog® & News

Nearby

Air Quality

  Air Quality AQ Index Pollutant
Not available.

Snow Depth

Station Depth Elevation

Earthquake Activity

City Distance Mag. Time & Date
Minimum magnitude displayed is 2.5.

Coastal Water Temperatures

Place Temperature

Stations

Nearby Weather Stations

Station Location Temp. Windchill Dew Point Humidity Wind Precip. Elev Updated Type
                   

Watches & Warnings

There are currently no watches in effect.